createdAt,value
2022-09-21T00:00:09.402Z,992.8
2022-09-21T00:02:10.483Z,992.8
2022-09-21T00:04:12.191Z,992.8
2022-09-21T00:06:13.881Z,992.9
2022-09-21T00:08:15.123Z,992.8
2022-09-21T00:10:16.358Z,992.9
2022-09-21T00:12:18.112Z,992.9
2022-09-21T00:14:19.183Z,992.9
2022-09-21T00:16:20.407Z,992.8
2022-09-21T00:17:31.407Z,992.9
2022-09-21T00:19:32.443Z,992.8
2022-09-21T00:21:33.879Z,992.9
2022-09-21T00:23:35.603Z,992.8
2022-09-21T00:25:37.320Z,992.8
2022-09-21T00:27:38.967Z,993
2022-09-21T00:29:40.666Z,992.8
2022-09-21T00:31:42.356Z,992.9
2022-09-21T00:33:44.140Z,992.9
2022-09-21T00:35:45.614Z,992.9
2022-09-21T00:37:46.565Z,992.8
2022-09-21T00:39:48.217Z,992.8
2022-09-21T00:41:49.441Z,992.8
2022-09-21T00:43:50.733Z,992.8
2022-09-21T00:45:51.802Z,992.7
2022-09-21T00:47:53.301Z,992.8
2022-09-21T00:49:55.209Z,992.9
2022-09-21T00:51:57.067Z,992.9
2022-09-21T00:53:58.514Z,992.9
2022-09-21T00:55:59.803Z,992.9
2022-09-21T00:58:01.211Z,992.9
2022-09-21T01:00:02.289Z,992.8
2022-09-21T01:02:03.853Z,992.9
2022-09-21T01:04:04.914Z,992.8
2022-09-21T01:06:06.555Z,992.8
2022-09-21T01:08:07.797Z,992.9
2022-09-21T01:10:09.727Z,992.9
2022-09-21T01:12:10.821Z,993
2022-09-21T01:14:12.709Z,992.9
2022-09-21T01:16:14.328Z,992.9
2022-09-21T01:18:15.539Z,992.9
2022-09-21T01:20:17.000Z,992.9
2022-09-21T01:24:20.155Z,992.9
2022-09-21T01:26:21.557Z,993
2022-09-21T01:28:23.143Z,992.9
2022-09-21T01:30:24.406Z,992.9
2022-09-21T01:34:27.922Z,993
2022-09-21T01:36:28.975Z,993.1
2022-09-21T01:40:35.287Z,993.1
2022-09-21T01:42:33.093Z,993.1
2022-09-21T01:44:34.684Z,993.1
2022-09-21T01:46:35.731Z,993.1
2022-09-21T01:48:37.321Z,993.2
2022-09-21T01:50:38.968Z,993.1
2022-09-21T01:52:40.368Z,993.1
2022-09-21T01:54:41.634Z,993.1
2022-09-21T01:56:43.191Z,993.1
2022-09-21T01:58:44.942Z,993.1
2022-09-21T02:00:46.516Z,993.1
2022-09-21T02:02:48.030Z,993.1
2022-09-21T02:04:49.393Z,993
2022-09-21T02:06:50.554Z,993
2022-09-21T02:10:54.048Z,993.1
2022-09-21T02:12:55.782Z,993
2022-09-21T02:14:56.994Z,993.1
2022-09-21T02:16:58.634Z,993
2022-09-21T02:19:00.188Z,993.1
2022-09-21T02:23:03.191Z,993
2022-09-21T02:25:05.002Z,993
2022-09-21T02:27:06.833Z,993.1
2022-09-21T02:29:08.090Z,992.9
2022-09-21T02:31:10.131Z,993
2022-09-21T02:33:11.916Z,993
2022-09-21T02:35:13.775Z,992.9
2022-09-21T02:37:14.840Z,993
2022-09-21T02:39:15.848Z,993
2022-09-21T02:41:17.533Z,993.1
2022-09-21T02:43:18.887Z,993
2022-09-21T02:45:20.268Z,993.1
2022-09-21T02:47:21.682Z,993.1
2022-09-21T02:49:23.491Z,993
2022-09-21T02:51:25.026Z,993.1
2022-09-21T02:53:26.184Z,993.1
2022-09-21T02:55:27.922Z,993.1
2022-09-21T02:57:29.232Z,993.1
2022-09-21T02:59:30.755Z,993
2022-09-21T03:01:31.997Z,993.1
2022-09-21T03:03:33.766Z,993.1
2022-09-21T03:05:34.997Z,993
2022-09-21T03:07:36.520Z,993.1
2022-09-21T03:09:37.886Z,993.2
2022-09-21T03:11:39.731Z,993.1
2022-09-21T03:13:41.527Z,993.1
2022-09-21T03:15:42.917Z,993.1
2022-09-21T03:17:44.326Z,993.1
2022-09-21T03:21:47.553Z,993.1
2022-09-21T03:23:49.064Z,993.2
2022-09-21T03:25:50.559Z,993.3
2022-09-21T03:27:52.464Z,993.2
2022-09-21T03:29:56.039Z,993.2
2022-09-21T03:31:56.087Z,993.2
2022-09-21T03:33:57.211Z,993.2
2022-09-21T03:35:59.200Z,993.3
2022-09-21T03:38:00.447Z,993.3
2022-09-21T03:40:02.317Z,993.3
2022-09-21T03:42:03.696Z,993.3
2022-09-21T03:44:04.950Z,993.3
2022-09-21T03:46:06.256Z,993.2
2022-09-21T03:48:08.167Z,993.2
2022-09-21T03:50:10.130Z,993.3
2022-09-21T03:52:11.302Z,993.2
2022-09-21T03:54:13.166Z,993.2
2022-09-21T03:56:14.119Z,993.2
2022-09-21T03:58:15.118Z,993.2
2022-09-21T04:00:16.943Z,993.2
2022-09-21T04:04:20.280Z,993.3
2022-09-21T04:06:21.327Z,993.2
2022-09-21T04:08:22.664Z,993.3
2022-09-21T04:10:23.978Z,993.2
2022-09-21T04:12:25.192Z,993.3
2022-09-21T04:14:26.842Z,993.3
2022-09-21T04:16:28.184Z,993.3
2022-09-21T04:18:29.865Z,993.4
2022-09-21T04:20:31.382Z,993.4
2022-09-21T04:22:33.131Z,993.4
2022-09-21T04:24:34.890Z,993.3
2022-09-21T04:26:36.411Z,993.4
2022-09-21T04:30:39.765Z,993.4
2022-09-21T04:32:40.811Z,993.4
2022-09-21T04:34:42.601Z,993.4
2022-09-21T04:36:43.724Z,993.4
2022-09-21T04:38:45.188Z,993.4
2022-09-21T04:40:46.317Z,993.4
2022-09-21T04:42:48.208Z,993.4
2022-09-21T04:44:49.667Z,993.4
2022-09-21T04:46:51.338Z,993.5
2022-09-21T04:48:52.885Z,993.5
2022-09-21T04:50:54.883Z,993.5
2022-09-21T04:52:56.169Z,993.5
2022-09-21T04:54:57.989Z,993.5
2022-09-21T04:56:59.571Z,993.6
2022-09-21T04:59:01.007Z,993.6
2022-09-21T05:01:03.082Z,993.6
2022-09-21T05:03:04.477Z,993.6
2022-09-21T05:05:05.402Z,993.7
2022-09-21T05:07:06.873Z,993.7
2022-09-21T05:09:08.560Z,993.7
2022-09-21T05:11:09.734Z,993.7
2022-09-21T05:13:11.167Z,993.7
2022-09-21T05:15:13.206Z,993.7
2022-09-21T05:17:14.182Z,993.8
2022-09-21T05:19:15.500Z,993.8
2022-09-21T05:21:16.568Z,993.8
2022-09-21T05:23:18.447Z,993.8
2022-09-21T05:25:20.107Z,993.8
2022-09-21T05:29:22.929Z,993.9
2022-09-21T05:31:24.618Z,993.8
2022-09-21T05:33:25.667Z,993.8
2022-09-21T05:35:26.828Z,993.9
2022-09-21T05:37:27.929Z,993.9
2022-09-21T05:39:29.383Z,993.9
2022-09-21T05:41:30.435Z,993.9
2022-09-21T05:43:32.305Z,993.9
2022-09-21T05:45:33.958Z,994
2022-09-21T05:47:35.402Z,994
2022-09-21T05:49:37.235Z,994.1
2022-09-21T05:51:39.180Z,994
2022-09-21T05:53:40.540Z,994
2022-09-21T05:55:42.015Z,994
2022-09-21T06:01:47.524Z,994
2022-09-21T06:03:48.909Z,994
2022-09-21T06:05:50.785Z,994
2022-09-21T06:07:52.227Z,994.1
2022-09-21T06:09:54.118Z,994
2022-09-21T06:11:55.853Z,994
2022-09-21T06:13:57.682Z,994.1
2022-09-21T06:15:59.456Z,994.1
2022-09-21T06:18:00.803Z,994.1
2022-09-21T06:20:02.441Z,994.1
2022-09-21T06:22:03.955Z,994.1
2022-09-21T06:24:05.619Z,994.1
2022-09-21T06:28:08.800Z,994.2
2022-09-21T06:30:09.629Z,994.1
2022-09-21T06:32:11.361Z,994
2022-09-21T06:34:13.106Z,994.1
2022-09-21T06:36:14.397Z,994.1
2022-09-21T06:38:15.379Z,994.1
2022-09-21T06:40:16.884Z,994.1
2022-09-21T06:42:18.680Z,994.1
2022-09-21T06:44:20.155Z,994.1
2022-09-21T06:46:22.023Z,994.2
2022-09-21T06:48:23.368Z,994.1
2022-09-21T06:50:24.605Z,994
2022-09-21T06:52:25.890Z,994.1
2022-09-21T06:54:27.681Z,994.1
2022-09-21T06:56:28.888Z,994.1
2022-09-21T06:58:30.492Z,994.1
2022-09-21T07:00:32.507Z,994.1
2022-09-21T07:02:34.051Z,994.1
2022-09-21T07:05:18.988Z,994.1
2022-09-21T07:07:20.198Z,994.1
2022-09-21T07:11:23.527Z,994.2
2022-09-21T07:13:24.865Z,994.1
2022-09-21T07:15:25.993Z,994.2
2022-09-21T07:17:27.476Z,994.1
2022-09-21T07:21:30.836Z,994.2
2022-09-21T07:23:32.714Z,994.1
2022-09-21T07:25:34.197Z,994.2
2022-09-21T07:27:35.747Z,994.2
2022-09-21T07:29:37.116Z,994.2
2022-09-21T07:31:38.405Z,994.2
2022-09-21T07:33:39.438Z,994.3
2022-09-21T07:35:41.203Z,994.3
2022-09-21T07:37:42.991Z,994.2
2022-09-21T07:39:44.694Z,994.3
2022-09-21T07:41:45.799Z,994.3
2022-09-21T07:43:47.401Z,994.2
2022-09-21T07:45:49.340Z,994.4
2022-09-21T07:47:50.517Z,994.3
2022-09-21T07:49:52.347Z,994.4
2022-09-21T07:51:53.644Z,994.4
2022-09-21T07:53:55.391Z,994.3
2022-09-21T07:55:56.836Z,994.3
2022-09-21T07:57:58.155Z,994.3
2022-09-21T07:59:59.551Z,994.2
2022-09-21T08:02:01.223Z,994.3
2022-09-21T08:04:02.850Z,994.2
2022-09-21T08:06:04.137Z,994.3
2022-09-21T08:08:05.786Z,994.2
2022-09-21T08:10:06.903Z,994.2
2022-09-21T08:12:08.356Z,994.2
2022-09-21T08:14:10.251Z,994.2
2022-09-21T08:16:11.547Z,994.2
2022-09-21T08:18:13.363Z,994.3
2022-09-21T08:20:14.510Z,994.3
2022-09-21T08:22:15.986Z,994.3
2022-09-21T08:26:19.706Z,994.4
2022-09-21T08:28:20.763Z,994.3
2022-09-21T08:30:22.627Z,994.3
2022-09-21T08:32:46.828Z,994.4
2022-09-21T08:34:25.654Z,994.3
2022-09-21T08:36:27.431Z,994.4
2022-09-21T08:38:29.250Z,994.3
2022-09-21T08:40:30.514Z,994.3
2022-09-21T08:42:32.003Z,994.3
2022-09-21T08:44:34.373Z,994.4
2022-09-21T08:46:35.758Z,994.4
2022-09-21T08:48:37.541Z,994.5
2022-09-21T08:50:38.505Z,994.4
2022-09-21T08:52:40.485Z,994.4
2022-09-21T08:54:42.144Z,994.4
2022-09-21T08:57:03.756Z,994.4
2022-09-21T08:58:45.402Z,994.4
2022-09-21T09:00:47.099Z,994.3
2022-09-21T09:02:47.972Z,994.3
2022-09-21T09:04:48.925Z,994.3
2022-09-21T09:08:51.212Z,994.3
2022-09-21T09:10:52.226Z,994.4
2022-09-21T09:12:53.640Z,994.2
2022-09-21T09:14:55.201Z,994.3
2022-09-21T09:16:56.378Z,994.2
2022-09-21T09:18:57.772Z,994.1
2022-09-21T09:20:59.159Z,994.2
2022-09-21T09:23:00.779Z,994.2
2022-09-21T09:25:02.174Z,994.2
2022-09-21T09:27:03.926Z,994.3
2022-09-21T09:29:05.428Z,994.2
2022-09-21T09:31:06.816Z,994.3
2022-09-21T09:33:08.435Z,994.1
2022-09-21T09:35:10.009Z,994.2
2022-09-21T09:37:11.324Z,994.1
2022-09-21T09:39:12.140Z,994.2
2022-09-21T09:41:13.097Z,994.2
2022-09-21T09:43:14.088Z,994.1
2022-09-21T09:45:15.709Z,994.1
2022-09-21T09:47:17.389Z,994.1
2022-09-21T09:49:19.405Z,994.1
2022-09-21T09:51:20.514Z,994.2
2022-09-21T09:53:21.774Z,994.2
2022-09-21T09:55:23.048Z,994.2
2022-09-21T09:57:24.056Z,994.2
2022-09-21T09:59:25.148Z,994.1
2022-09-21T10:01:26.948Z,994.2
2022-09-21T10:03:28.369Z,994.1
2022-09-21T10:05:30.186Z,994.1
2022-09-21T10:07:31.243Z,994.1
2022-09-21T10:09:32.596Z,994.2
2022-09-21T10:11:34.213Z,994.1
2022-09-21T10:13:35.644Z,994
2022-09-21T10:15:37.377Z,993.9
2022-09-21T10:17:38.597Z,994.1
2022-09-21T10:19:39.528Z,994
2022-09-21T10:21:40.631Z,994.2
2022-09-21T10:23:41.809Z,994
2022-09-21T10:25:43.187Z,994
2022-09-21T10:27:44.449Z,994
2022-09-21T10:29:45.935Z,994
2022-09-21T10:31:47.041Z,994
2022-09-21T10:33:48.428Z,994
2022-09-21T10:35:50.055Z,994
2022-09-21T10:37:50.976Z,993.9
2022-09-21T10:39:52.221Z,993.9
2022-09-21T10:41:53.260Z,993.9
2022-09-21T10:43:54.395Z,993.9
2022-09-21T10:45:55.685Z,993.9
2022-09-21T10:47:56.931Z,993.9
2022-09-21T10:49:58.282Z,993.9
2022-09-21T10:51:59.164Z,993.8
2022-09-21T10:54:00.817Z,993.8
2022-09-21T10:56:15.341Z,993.9
2022-09-21T10:58:04.096Z,993.8
2022-09-21T11:00:05.387Z,993.8
2022-09-21T11:02:07.262Z,993.8
2022-09-21T11:04:08.568Z,993.6
2022-09-21T11:06:10.039Z,993.7
2022-09-21T11:08:11.864Z,993.7
2022-09-21T11:10:13.886Z,993.8
2022-09-21T11:12:14.769Z,993.7
2022-09-21T11:14:16.010Z,993.8
2022-09-21T11:16:17.239Z,993.8
2022-09-21T11:18:18.304Z,993.8
2022-09-21T11:20:19.509Z,993.8
2022-09-21T11:22:20.718Z,993.7
2022-09-21T11:26:23.724Z,993.9
2022-09-21T11:28:25.464Z,993.8
2022-09-21T11:30:27.233Z,993.8
2022-09-21T11:32:28.440Z,993.7
2022-09-21T11:34:30.242Z,993.8
2022-09-21T11:36:32.081Z,993.8
2022-09-21T11:38:34.353Z,993.8
2022-09-21T11:40:34.527Z,993.6
2022-09-21T11:42:35.629Z,993.6
2022-09-21T11:44:36.944Z,993.6
2022-09-21T11:46:38.523Z,993.6
2022-09-21T11:48:39.471Z,993.6
2022-09-21T11:50:40.608Z,993.5
2022-09-21T11:52:41.576Z,993.6
2022-09-21T11:54:42.962Z,993.5
2022-09-21T11:56:44.451Z,993.4
2022-09-21T11:58:45.412Z,993.4
2022-09-21T12:00:46.779Z,993.5
2022-09-21T12:02:48.457Z,993.3
2022-09-21T12:04:49.950Z,993.4
2022-09-21T12:06:50.889Z,993.4
2022-09-21T12:08:51.931Z,993.4
2022-09-21T12:10:53.535Z,993.3
2022-09-21T12:12:54.796Z,993.3
2022-09-21T12:14:55.803Z,993.4
2022-09-21T12:16:57.567Z,993.2
2022-09-21T12:18:59.081Z,993.3
2022-09-21T12:21:00.869Z,993.3
2022-09-21T12:23:02.162Z,993.4
2022-09-21T12:25:03.422Z,993.4
2022-09-21T12:27:04.924Z,993.3
2022-09-21T12:29:06.148Z,993.3
2022-09-21T12:31:07.110Z,993.2
2022-09-21T12:33:08.579Z,993.2
2022-09-21T12:35:09.513Z,993.3
2022-09-21T12:37:11.303Z,993.2
2022-09-21T12:39:12.984Z,993.3
2022-09-21T12:43:16.146Z,993.2
2022-09-21T12:45:17.923Z,993.2
2022-09-21T12:47:19.074Z,993.2
2022-09-21T12:51:21.251Z,993.2
2022-09-21T12:53:22.517Z,993.2
2022-09-21T12:55:23.723Z,993.2
2022-09-21T12:57:42.980Z,993.1
2022-09-21T12:59:26.548Z,993.2
2022-09-21T13:01:28.428Z,993.2
2022-09-21T13:03:29.822Z,993.1
2022-09-21T13:05:31.348Z,993
2022-09-21T13:07:32.347Z,992.9
2022-09-21T13:09:34.114Z,993
2022-09-21T13:11:35.186Z,993.1
2022-09-21T13:13:36.716Z,993
2022-09-21T13:15:38.095Z,993
2022-09-21T13:17:39.744Z,993
2022-09-21T13:19:40.763Z,992.9
2022-09-21T13:21:41.657Z,993.1
2022-09-21T13:23:43.240Z,993
2022-09-21T13:25:44.465Z,993
2022-09-21T13:27:45.840Z,993
2022-09-21T13:29:47.529Z,992.9
2022-09-21T13:33:51.080Z,992.9
2022-09-21T13:35:52.244Z,992.9
2022-09-21T13:37:53.097Z,992.9
2022-09-21T13:39:54.510Z,992.8
2022-09-21T13:42:03.096Z,992.8
2022-09-21T13:43:58.455Z,992.7
2022-09-21T13:45:58.612Z,992.6
2022-09-21T13:47:59.937Z,992.8
2022-09-21T13:50:44.901Z,992.8
2022-09-21T13:52:45.886Z,992.7
2022-09-21T13:54:47.351Z,992.7
2022-09-21T13:58:50.294Z,992.6
2022-09-21T14:00:51.489Z,992.7
2022-09-21T14:02:52.713Z,992.8
2022-09-21T14:04:54.485Z,992.7
2022-09-21T14:06:55.438Z,992.7
2022-09-21T14:08:56.515Z,992.6
2022-09-21T14:10:57.568Z,992.7
2022-09-21T14:12:58.522Z,992.5
2022-09-21T14:15:00.347Z,992.6
2022-09-21T14:17:01.555Z,992.7
2022-09-21T14:19:02.841Z,992.6
2022-09-21T14:21:04.411Z,992.5
2022-09-21T14:23:05.497Z,992.6
2022-09-21T14:27:08.873Z,992.6
2022-09-21T14:29:10.125Z,992.6
2022-09-21T14:31:11.871Z,992.6
2022-09-21T14:33:13.460Z,992.5
2022-09-21T14:35:14.625Z,992.6
2022-09-21T14:37:16.355Z,992.6
2022-09-21T14:39:17.553Z,992.5
2022-09-21T14:41:19.118Z,992.5
2022-09-21T14:43:20.792Z,992.5
2022-09-21T14:45:21.790Z,992.5
2022-09-21T14:47:23.263Z,992.5
2022-09-21T14:49:24.576Z,992.5
2022-09-21T14:51:25.694Z,992.4
2022-09-21T14:53:26.658Z,992.4
2022-09-21T14:55:27.944Z,992.5
2022-09-21T14:57:28.771Z,992.4
2022-09-21T14:59:29.651Z,992.4
2022-09-21T15:01:30.973Z,992.5
2022-09-21T15:03:32.654Z,992.4
2022-09-21T15:05:33.465Z,992.5
2022-09-21T15:07:35.257Z,992.4
2022-09-21T15:09:36.146Z,992.4
2022-09-21T15:11:37.637Z,992.4
2022-09-21T15:13:38.482Z,992.3
2022-09-21T15:15:40.260Z,992.3
2022-09-21T15:17:41.484Z,992.4
2022-09-21T15:19:42.564Z,992.3
2022-09-21T15:21:43.699Z,992.3
2022-09-21T15:23:45.207Z,992.2
2022-09-21T15:25:46.675Z,992.3
2022-09-21T15:27:48.172Z,992.2
2022-09-21T15:29:49.532Z,992.3
2022-09-21T15:31:51.021Z,992.3
2022-09-21T15:33:52.590Z,992.2
2022-09-21T15:35:53.816Z,992.2
2022-09-21T15:37:55.100Z,992.2
2022-09-21T15:39:56.058Z,992.1
2022-09-21T15:41:57.531Z,992.1
2022-09-21T15:43:58.432Z,992.1
2022-09-21T15:45:59.325Z,992.1
2022-09-21T15:48:00.472Z,992.1
2022-09-21T15:50:01.322Z,992.1
2022-09-21T15:52:03.377Z,992.1
2022-09-21T15:54:04.324Z,992.1
2022-09-21T15:56:06.073Z,992.1
2022-09-21T15:58:07.881Z,992.1
2022-09-21T16:00:08.834Z,992.1
2022-09-21T16:02:10.219Z,992.2
2022-09-21T16:04:11.628Z,992.2
2022-09-21T16:08:14.698Z,992
2022-09-21T16:10:16.113Z,992.1
2022-09-21T16:12:17.676Z,992.1
2022-09-21T16:14:18.696Z,992
2022-09-21T16:16:20.562Z,992
2022-09-21T16:18:21.934Z,992.1
2022-09-21T16:20:22.945Z,992.1
2022-09-21T16:22:24.530Z,992.2
2022-09-21T16:24:26.172Z,992.1
2022-09-21T16:26:27.648Z,992.1
2022-09-21T16:28:28.887Z,992.1
2022-09-21T16:30:30.615Z,992.2
2022-09-21T16:32:32.126Z,992.2
2022-09-21T16:34:33.107Z,992.2
2022-09-21T16:36:34.850Z,992.2
2022-09-21T16:38:36.085Z,992.2
2022-09-21T16:40:37.936Z,992.1
2022-09-21T16:42:39.500Z,992.2
2022-09-21T16:44:40.658Z,992.2
2022-09-21T16:46:42.124Z,992.2
2022-09-21T16:48:43.926Z,992.2
2022-09-21T16:50:45.542Z,992.2
2022-09-21T16:52:46.573Z,992.2
2022-09-21T16:54:48.216Z,992.3
2022-09-21T16:56:49.073Z,992.2
2022-09-21T16:58:49.941Z,992.3
2022-09-21T17:00:54.701Z,992.3
2022-09-21T17:02:53.052Z,992.3
2022-09-21T17:06:55.304Z,992.3
2022-09-21T17:08:56.416Z,992.3
2022-09-21T17:10:58.030Z,992.4
2022-09-21T17:12:59.284Z,992.3
2022-09-21T17:15:00.654Z,992.4
2022-09-21T17:17:02.291Z,992.4
2022-09-21T17:19:03.570Z,992.4
2022-09-21T17:21:05.004Z,992.3
2022-09-21T17:23:06.367Z,992.4
2022-09-21T17:25:08.248Z,992.3
2022-09-21T17:27:09.617Z,992.3
2022-09-21T17:29:10.620Z,992.3
2022-09-21T17:31:12.074Z,992.3
2022-09-21T17:33:13.573Z,992.3
2022-09-21T17:35:14.994Z,992.3
2022-09-21T17:37:16.552Z,992.3
2022-09-21T17:39:17.682Z,992.4
2022-09-21T17:41:19.154Z,992.4
2022-09-21T17:43:20.705Z,992.4
2022-09-21T17:45:21.807Z,992.4
2022-09-21T17:47:22.907Z,992.4
2022-09-21T17:49:23.980Z,992.4
2022-09-21T17:51:25.820Z,992.4
2022-09-21T17:53:26.823Z,992.4
2022-09-21T17:55:27.846Z,992.4
2022-09-21T17:57:29.569Z,992.5
2022-09-21T17:59:30.905Z,992.6
2022-09-21T18:01:32.243Z,992.6
2022-09-21T18:03:33.127Z,992.5
2022-09-21T18:05:34.827Z,992.5
2022-09-21T18:07:36.300Z,992.6
2022-09-21T18:09:38.157Z,992.5
2022-09-21T18:11:39.429Z,992.5
2022-09-21T18:15:42.397Z,992.5
2022-09-21T18:17:43.728Z,992.6
2022-09-21T18:19:45.011Z,992.6
2022-09-21T18:21:46.317Z,992.6
2022-09-21T18:25:48.854Z,992.7
2022-09-21T18:27:50.622Z,992.7
2022-09-21T18:29:52.917Z,992.6
2022-09-21T18:31:53.201Z,992.7
2022-09-21T18:33:55.193Z,992.7
2022-09-21T18:35:56.988Z,992.7
2022-09-21T18:37:58.754Z,992.7
2022-09-21T18:39:59.901Z,992.6
2022-09-21T18:42:01.532Z,992.7
2022-09-21T18:44:03.231Z,992.7
2022-09-21T18:46:05.154Z,992.6
2022-09-21T18:48:06.978Z,992.7
2022-09-21T18:50:08.402Z,992.7
2022-09-21T18:52:09.898Z,992.8
2022-09-21T18:54:10.924Z,992.8
2022-09-21T18:56:11.980Z,992.8
2022-09-21T18:58:13.127Z,992.7
2022-09-21T19:00:14.840Z,992.8
2022-09-21T19:02:16.347Z,992.8
2022-09-21T19:04:17.952Z,992.8
2022-09-21T19:08:20.584Z,992.8
2022-09-21T19:10:22.446Z,992.8
2022-09-21T19:12:24.106Z,992.8
2022-09-21T19:14:25.918Z,992.8
2022-09-21T19:16:27.867Z,992.8
2022-09-21T19:18:29.013Z,992.8
2022-09-21T19:20:30.636Z,992.8
2022-09-21T19:22:31.915Z,992.9
2022-09-21T19:24:32.848Z,992.8
2022-09-21T19:26:34.776Z,992.8
2022-09-21T19:28:36.476Z,992.8
2022-09-21T19:30:38.168Z,992.8
2022-09-21T19:32:39.856Z,992.9
2022-09-21T19:34:41.384Z,992.9
2022-09-21T19:36:42.423Z,992.9
2022-09-21T19:38:44.060Z,993
2022-09-21T19:40:45.585Z,992.9
2022-09-21T19:42:46.548Z,992.9
2022-09-21T19:44:48.336Z,992.9
2022-09-21T19:46:49.683Z,992.9
2022-09-21T19:48:51.522Z,992.9
2022-09-21T19:50:53.481Z,992.9
2022-09-21T19:52:54.468Z,992.8
2022-09-21T19:56:56.957Z,992.9
2022-09-21T19:58:58.604Z,992.9
2022-09-21T20:00:59.996Z,992.9
2022-09-21T20:03:01.585Z,992.9
2022-09-21T20:05:02.661Z,992.9
2022-09-21T20:07:04.095Z,992.9
2022-09-21T20:09:05.746Z,992.8
2022-09-21T20:11:06.899Z,992.8
2022-09-21T20:13:08.538Z,992.9
2022-09-21T20:15:09.533Z,992.9
2022-09-21T20:17:11.380Z,992.9
2022-09-21T20:19:12.462Z,992.8
2022-09-21T20:21:13.468Z,992.8
2022-09-21T20:23:15.478Z,992.8
2022-09-21T20:25:16.512Z,992.9
2022-09-21T20:27:18.488Z,992.9
2022-09-21T20:29:19.874Z,992.8
2022-09-21T20:31:21.991Z,992.8
2022-09-21T20:33:23.027Z,992.8
2022-09-21T20:34:33.078Z,992.8
2022-09-21T20:36:34.663Z,992.8
2022-09-21T20:38:36.267Z,992.9
2022-09-21T20:40:37.753Z,992.9
2022-09-21T20:44:40.471Z,992.9
2022-09-21T20:46:42.253Z,992.9
2022-09-21T20:48:43.503Z,992.8
2022-09-21T20:50:45.390Z,992.8
2022-09-21T20:54:49.635Z,992.9
2022-09-21T20:56:50.076Z,993.1
2022-09-21T20:58:51.707Z,993.1
2022-09-21T21:00:56.552Z,993.1
2022-09-21T21:02:54.409Z,993
2022-09-21T21:04:56.028Z,993
2022-09-21T21:06:57.540Z,993
2022-09-21T21:08:58.885Z,993
2022-09-21T21:11:00.714Z,993
2022-09-21T21:13:02.680Z,993
2022-09-21T21:15:03.756Z,993.1
2022-09-21T21:17:05.728Z,993.1
2022-09-21T21:19:06.818Z,993.1
2022-09-21T21:21:08.303Z,993
2022-09-21T21:23:10.232Z,993
2022-09-21T21:27:13.267Z,993.1
2022-09-21T21:29:14.807Z,993.1
2022-09-21T21:31:19.437Z,993.1
2022-09-21T21:33:18.097Z,993.1
2022-09-21T21:37:21.228Z,993
2022-09-21T21:39:22.873Z,993
2022-09-21T21:41:24.300Z,993.1
2022-09-21T21:43:25.871Z,993
2022-09-21T21:45:27.647Z,993.1
2022-09-21T21:47:39.056Z,993
2022-09-21T21:49:30.748Z,992.9
2022-09-21T21:51:32.271Z,993
2022-09-21T21:53:33.779Z,992.9
2022-09-21T21:55:35.564Z,992.9
2022-09-21T21:57:36.704Z,992.8
2022-09-21T21:59:37.797Z,992.9
2022-09-21T22:01:39.742Z,992.9
2022-09-21T22:03:40.901Z,992.9
2022-09-21T22:05:42.777Z,993
2022-09-21T22:07:44.344Z,992.9
2022-09-21T22:09:45.372Z,992.9
2022-09-21T22:11:47.116Z,992.8
2022-09-21T22:15:50.726Z,992.8
2022-09-21T22:17:52.336Z,992.8
2022-09-21T22:19:53.839Z,992.8
2022-09-21T22:21:55.479Z,992.9
2022-09-21T22:25:58.108Z,992.8
2022-09-21T22:27:59.979Z,992.8
2022-09-21T22:30:01.401Z,992.9
2022-09-21T22:32:02.950Z,992.9
2022-09-21T22:34:04.723Z,992.8
2022-09-21T22:36:06.597Z,992.8
2022-09-21T22:38:08.104Z,992.8
2022-09-21T22:40:10.199Z,992.8
2022-09-21T22:42:12.003Z,992.7
2022-09-21T22:44:13.249Z,992.8
2022-09-21T22:46:14.714Z,992.8
2022-09-21T22:48:15.769Z,992.8
2022-09-21T22:50:17.352Z,992.8
2022-09-21T22:52:18.946Z,992.7
2022-09-21T22:54:20.081Z,992.8
2022-09-21T22:58:22.940Z,992.8
2022-09-21T23:00:24.212Z,992.7
2022-09-21T23:02:25.512Z,992.7
2022-09-21T23:04:27.178Z,992.7
2022-09-21T23:08:30.686Z,992.8
2022-09-21T23:10:32.446Z,992.7
2022-09-21T23:12:33.955Z,992.7
2022-09-21T23:14:35.891Z,992.6
2022-09-21T23:16:37.226Z,992.6
2022-09-21T23:18:38.903Z,992.5
2022-09-21T23:20:40.223Z,992.6
2022-09-21T23:22:41.742Z,992.6
2022-09-21T23:24:43.313Z,992.5
2022-09-21T23:26:45.183Z,992.5
2022-09-21T23:28:47.114Z,992.5
2022-09-21T23:30:48.172Z,992.5
2022-09-21T23:32:49.757Z,992.5
2022-09-21T23:34:51.080Z,992.4
2022-09-21T23:36:52.822Z,992.5
2022-09-21T23:38:53.887Z,992.5
2022-09-21T23:40:55.797Z,992.4
2022-09-21T23:42:57.046Z,992.5
2022-09-21T23:44:58.751Z,992.5
2022-09-21T23:47:00.535Z,992.4
2022-09-21T23:49:01.686Z,992.5
2022-09-21T23:51:03.240Z,992.3
2022-09-21T23:53:04.603Z,992.4
2022-09-21T23:55:05.620Z,992.4
2022-09-21T23:57:07.375Z,992.5
2022-09-21T23:59:08.666Z,992.5
